createdAt,value
2023-03-10T00:00:42.482Z,16.50
2023-03-10T00:03:10.223Z,23.53
2023-03-10T00:05:38.875Z,17.50
2023-03-10T00:08:07.371Z,15.47
2023-03-10T00:10:35.045Z,13.50
2023-03-10T00:13:02.711Z,14.00
2023-03-10T00:15:31.606Z,12.67
2023-03-10T00:18:00.677Z,17.13
2023-03-10T00:20:28.422Z,12.37
2023-03-10T00:22:56.130Z,14.90
2023-03-10T00:25:24.012Z,17.13
2023-03-10T00:27:52.534Z,11.60
2023-03-10T00:30:20.443Z,9.67
2023-03-10T00:32:48.101Z,10.97
2023-03-10T00:35:17.283Z,12.67
2023-03-10T00:37:44.956Z,11.03
2023-03-10T00:40:14.332Z,12.40
2023-03-10T00:42:42.651Z,13.50
2023-03-10T00:45:11.094Z,11.53
2023-03-10T00:47:38.820Z,9.57
2023-03-10T00:50:07.190Z,11.93
2023-03-10T00:52:36.233Z,12.73
2023-03-10T00:55:04.419Z,11.60
2023-03-10T00:57:32.145Z,11.73
2023-03-10T00:59:59.776Z,11.53
2023-03-10T01:02:29.054Z,8.83
2023-03-10T01:04:56.768Z,10.50
2023-03-10T01:07:24.551Z,10.47
2023-03-10T01:09:53.513Z,8.63
2023-03-10T01:12:21.818Z,8.37
2023-03-10T01:14:49.474Z,9.30
2023-03-10T01:17:17.159Z,10.23
2023-03-10T01:19:45.021Z,8.97
2023-03-10T01:22:12.729Z,11.33
2023-03-10T01:24:40.463Z,6.27
2023-03-10T01:27:09.596Z,9.00
2023-03-10T01:29:37.209Z,11.10
2023-03-10T01:32:05.113Z,8.07
2023-03-10T01:34:32.925Z,10.13
2023-03-10T01:37:00.708Z,9.37
2023-03-10T01:39:28.318Z,7.20
2023-03-10T01:41:56.034Z,8.30
2023-03-10T01:44:25.014Z,8.10
2023-03-10T01:46:54.305Z,9.63
2023-03-10T01:49:34.166Z,6.70
2023-03-10T01:52:06.309Z,9.57
2023-03-10T01:54:41.819Z,7.90
2023-03-10T01:57:10.152Z,7.37
2023-03-10T01:59:41.506Z,7.90
2023-03-10T02:02:10.444Z,8.43
2023-03-10T02:04:43.634Z,5.80
2023-03-10T02:07:12.960Z,8.87
2023-03-10T02:09:45.013Z,7.60
2023-03-10T02:12:15.087Z,8.43
2023-03-10T02:14:45.734Z,9.27
2023-03-10T02:17:17.910Z,10.90
2023-03-10T02:20:03.252Z,7.13
2023-03-10T02:22:32.766Z,8.67
2023-03-10T02:25:08.525Z,7.10
2023-03-10T02:27:39.222Z,5.83
2023-03-10T02:30:10.438Z,6.33
2023-03-10T02:32:43.019Z,6.60
2023-03-10T02:35:12.365Z,7.53
2023-03-10T02:37:40.389Z,6.80
2023-03-10T02:40:29.677Z,6.90
2023-03-10T02:42:59.918Z,7.60
2023-03-10T02:45:30.190Z,7.20
2023-03-10T02:47:59.108Z,7.53
2023-03-10T02:50:30.477Z,8.07
2023-03-10T02:53:04.484Z,4.93
2023-03-10T02:55:32.179Z,6.67
2023-03-10T02:58:02.443Z,6.83
2023-03-10T03:00:30.560Z,4.53
2023-03-10T03:02:58.391Z,4.80
2023-03-10T03:05:28.562Z,4.47
2023-03-10T03:07:56.446Z,4.30
2023-03-10T03:10:24.466Z,5.63
2023-03-10T03:12:52.534Z,5.00
2023-03-10T03:15:21.757Z,4.20
2023-03-10T03:17:49.507Z,5.07
2023-03-10T03:20:18.155Z,5.10
2023-03-10T03:22:46.787Z,6.87
2023-03-10T03:25:17.459Z,3.70
2023-03-10T03:27:45.771Z,3.70
2023-03-10T03:30:17.471Z,4.70
2023-03-10T03:32:47.036Z,6.93
2023-03-10T03:35:16.908Z,5.23
2023-03-10T03:37:45.092Z,4.20
2023-03-10T03:40:14.758Z,4.93
2023-03-10T03:42:43.717Z,4.77
2023-03-10T03:45:13.567Z,3.60
2023-03-10T03:47:41.787Z,3.57
2023-03-10T03:50:13.096Z,3.37
2023-03-10T03:52:41.215Z,3.03
2023-03-10T03:55:10.440Z,5.27
2023-03-10T03:57:38.472Z,2.90
2023-03-10T04:00:08.797Z,3.27
2023-03-10T04:02:36.965Z,4.93
2023-03-10T04:05:05.643Z,4.90
2023-03-10T04:07:35.363Z,3.27
2023-03-10T04:10:03.139Z,2.17
2023-03-10T04:12:31.352Z,4.47
2023-03-10T04:14:59.259Z,2.70
2023-03-10T04:17:27.055Z,3.90
2023-03-10T04:20:06.650Z,3.43
2023-03-10T04:22:39.514Z,1.93
2023-03-10T04:25:08.507Z,3.03
2023-03-10T04:27:36.568Z,2.73
2023-03-10T04:30:05.190Z,2.93
2023-03-10T04:32:33.263Z,3.23
2023-03-10T04:35:02.076Z,3.87
2023-03-10T04:37:29.890Z,2.53
2023-03-10T04:39:59.187Z,3.00
2023-03-10T04:42:28.117Z,3.07
2023-03-10T04:44:55.906Z,3.30
2023-03-10T04:47:23.559Z,2.33
2023-03-10T04:49:51.429Z,3.03
2023-03-10T04:52:19.193Z,2.40
2023-03-10T04:54:46.892Z,2.40
2023-03-10T04:57:16.259Z,2.97
2023-03-10T04:59:43.879Z,4.30
2023-03-10T05:02:11.683Z,3.37
2023-03-10T05:04:39.504Z,5.10
2023-03-10T05:07:08.365Z,3.33
2023-03-10T05:09:37.702Z,4.03
2023-03-10T05:12:06.611Z,4.23
2023-03-10T05:14:35.644Z,3.43
2023-03-10T05:17:03.893Z,5.03
2023-03-10T05:19:31.644Z,4.60
2023-03-10T05:21:59.534Z,3.93
2023-03-10T05:24:27.315Z,3.43
2023-03-10T05:26:55.071Z,3.60
2023-03-10T05:29:22.964Z,4.30
2023-03-10T05:31:51.924Z,4.63
2023-03-10T05:34:19.630Z,3.00
2023-03-10T05:36:47.379Z,3.80
2023-03-10T05:39:15.275Z,5.33
2023-03-10T05:41:43.363Z,4.13
2023-03-10T05:44:11.252Z,4.90
2023-03-10T05:46:39.180Z,5.97
2023-03-10T05:49:08.289Z,3.80
2023-03-10T05:51:36.123Z,6.27
2023-03-10T05:54:08.244Z,3.77
2023-03-10T05:56:38.392Z,5.70
2023-03-10T05:59:07.833Z,3.23
2023-03-10T06:01:36.351Z,6.47
2023-03-10T06:04:04.455Z,3.17
2023-03-10T06:06:33.613Z,3.23
2023-03-10T06:09:01.723Z,3.97
2023-03-10T06:11:30.532Z,3.50
2023-03-10T06:13:58.173Z,3.60
2023-03-10T06:16:27.250Z,5.70
2023-03-10T06:18:56.236Z,3.90
2023-03-10T06:21:25.100Z,4.13
2023-03-10T06:23:54.161Z,3.53
2023-03-10T06:26:22.789Z,3.27
2023-03-10T06:28:50.550Z,6.20
2023-03-10T06:31:21.497Z,2.77
2023-03-10T06:33:49.397Z,3.90
2023-03-10T06:36:20.640Z,5.87
2023-03-10T06:38:48.799Z,3.50
2023-03-10T06:41:18.381Z,3.07
2023-03-10T06:43:46.068Z,3.53
2023-03-10T06:46:14.614Z,3.80
2023-03-10T06:48:43.742Z,3.50
2023-03-10T06:51:14.076Z,4.43
2023-03-10T06:53:42.110Z,3.50
2023-03-10T06:56:12.973Z,5.43
2023-03-10T06:58:42.822Z,5.13
2023-03-10T07:01:22.148Z,5.20
2023-03-10T07:03:50.310Z,4.37
2023-03-10T07:06:20.747Z,5.63
2023-03-10T07:08:49.013Z,5.23
2023-03-10T07:11:17.073Z,3.53
2023-03-10T07:13:46.009Z,3.17
2023-03-10T07:16:13.754Z,3.93
2023-03-10T07:18:42.666Z,4.33
2023-03-10T07:21:11.457Z,6.93
2023-03-10T07:23:40.286Z,3.90
2023-03-10T07:26:09.029Z,4.97
2023-03-10T07:28:38.597Z,3.83
2023-03-10T07:31:10.988Z,5.37
2023-03-10T07:33:39.074Z,4.53
2023-03-10T07:36:08.431Z,4.93
2023-03-10T07:38:36.205Z,6.27
2023-03-10T07:41:07.568Z,5.50
2023-03-10T07:43:35.569Z,4.50
2023-03-10T07:46:07.401Z,3.40
2023-03-10T07:48:36.325Z,4.27
2023-03-10T07:51:04.302Z,4.47
2023-03-10T07:53:33.133Z,5.10
2023-03-10T07:56:00.974Z,3.90
2023-03-10T07:58:28.652Z,4.60
2023-03-10T08:00:57.085Z,4.60
2023-03-10T08:03:26.974Z,6.70
2023-03-10T08:05:54.872Z,4.13
2023-03-10T08:08:23.119Z,5.13
2023-03-10T08:10:50.814Z,4.40
2023-03-10T08:13:18.515Z,4.40
2023-03-10T08:15:46.176Z,4.37
2023-03-10T08:18:13.914Z,7.20
2023-03-10T08:20:43.242Z,4.80
2023-03-10T08:23:10.956Z,5.37
2023-03-10T08:25:39.041Z,4.60
2023-03-10T08:28:06.845Z,4.93
2023-03-10T08:30:35.376Z,4.73
2023-03-10T08:33:03.080Z,4.83
2023-03-10T08:35:30.777Z,6.27
2023-03-10T08:37:59.745Z,5.33
2023-03-10T08:40:28.431Z,5.90
2023-03-10T08:42:56.100Z,6.13
2023-03-10T08:45:24.057Z,4.63
2023-03-10T08:47:52.072Z,5.23
2023-03-10T08:50:19.885Z,9.43
2023-03-10T08:52:47.716Z,5.87
2023-03-10T08:55:19.436Z,5.43
2023-03-10T08:57:47.431Z,4.60
2023-03-10T09:00:17.438Z,5.13
2023-03-10T09:02:45.361Z,4.33
2023-03-10T09:05:13.032Z,5.00
2023-03-10T09:07:41.384Z,5.37
2023-03-10T09:10:11.360Z,4.87
2023-03-10T09:12:43.157Z,5.47
2023-03-10T09:15:12.693Z,5.30
2023-03-10T09:17:41.118Z,6.07
2023-03-10T09:20:10.671Z,5.23
2023-03-10T09:22:39.190Z,6.03
2023-03-10T09:25:07.519Z,6.13
2023-03-10T09:27:35.198Z,5.40
2023-03-10T09:30:07.077Z,4.83
2023-03-10T09:32:34.767Z,5.63
2023-03-10T09:35:02.407Z,4.63
2023-03-10T09:37:30.153Z,2.87
2023-03-10T09:39:57.737Z,4.30
2023-03-10T09:42:41.261Z,4.70
2023-03-10T09:45:22.574Z,5.63
2023-03-10T09:48:00.219Z,4.57
2023-03-10T09:50:34.875Z,6.37
2023-03-10T09:53:08.816Z,8.73
2023-03-10T09:55:47.494Z,6.10
2023-03-10T09:58:22.079Z,4.23
2023-03-10T10:00:51.188Z,6.53
2023-03-10T10:03:22.431Z,6.20
2023-03-10T10:05:53.190Z,5.57
2023-03-10T10:08:25.219Z,3.73
2023-03-10T10:10:55.877Z,6.87
2023-03-10T10:13:26.363Z,4.20
2023-03-10T10:16:21.405Z,3.87
2023-03-10T10:18:58.766Z,4.60
2023-03-10T10:21:42.366Z,6.30
2023-03-10T10:24:11.276Z,6.30
2023-03-10T10:26:40.296Z,4.77
2023-03-10T10:29:16.455Z,4.47
2023-03-10T10:32:03.269Z,4.93
2023-03-10T10:34:32.117Z,4.77
2023-03-10T10:37:01.060Z,4.73
2023-03-10T10:39:32.916Z,6.73
2023-03-10T10:42:13.979Z,5.07
2023-03-10T10:44:43.230Z,5.33
2023-03-10T10:47:27.325Z,4.23
2023-03-10T10:49:56.520Z,4.97
2023-03-10T10:52:26.634Z,5.43
2023-03-10T10:54:58.734Z,6.37
2023-03-10T10:57:31.277Z,5.80
2023-03-10T11:00:18.356Z,4.83
2023-03-10T11:02:47.497Z,5.40
2023-03-10T11:05:17.226Z,4.47
2023-03-10T11:07:45.172Z,4.43
2023-03-10T11:10:15.793Z,7.20
2023-03-10T11:12:57.542Z,4.50
2023-03-10T11:15:31.600Z,5.90
2023-03-10T11:18:07.405Z,15.43
2023-03-10T11:20:52.364Z,14.10
2023-03-10T11:23:25.542Z,6.17
2023-03-10T11:26:00.095Z,6.53
2023-03-10T11:28:41.757Z,4.63
2023-03-10T11:31:21.699Z,6.50
2023-03-10T11:33:57.587Z,8.23
2023-03-10T11:36:43.283Z,3.67
2023-03-10T11:39:25.588Z,6.50
2023-03-10T11:42:00.386Z,7.50
2023-03-10T11:44:36.278Z,4.63
2023-03-10T11:47:09.601Z,6.33
2023-03-10T11:49:43.556Z,7.77
2023-03-10T11:52:14.770Z,3.20
2023-03-10T11:54:46.080Z,3.97
2023-03-10T11:57:17.984Z,4.30
2023-03-10T11:59:50.633Z,3.87
2023-03-10T12:02:25.046Z,2.70
2023-03-10T12:05:00.063Z,8.27
2023-03-10T12:07:34.197Z,13.70
2023-03-10T12:10:05.070Z,19.60
2023-03-10T12:12:37.093Z,19.20
2023-03-10T12:15:12.402Z,23.57
2023-03-10T12:17:41.687Z,10.03
2023-03-10T12:20:25.680Z,5.37
2023-03-10T12:22:54.547Z,4.33
2023-03-10T12:25:43.841Z,4.13
2023-03-10T12:28:24.214Z,3.77
2023-03-10T12:30:56.421Z,4.87
2023-03-10T12:33:47.519Z,3.90
2023-03-10T12:36:27.237Z,4.80
2023-03-10T12:38:57.481Z,5.47
2023-03-10T12:41:49.438Z,4.60
2023-03-10T12:44:38.831Z,4.53
2023-03-10T12:47:32.219Z,4.70
2023-03-10T12:50:08.095Z,5.77
2023-03-10T12:52:51.241Z,5.03
2023-03-10T12:55:22.499Z,4.57
2023-03-10T12:57:57.609Z,4.00
2023-03-10T13:00:40.584Z,4.43
2023-03-10T13:03:19.437Z,3.73
2023-03-10T13:06:06.851Z,3.63
2023-03-10T13:08:43.403Z,1.70
2023-03-10T13:11:27.549Z,2.60
2023-03-10T13:13:59.353Z,2.77
2023-03-10T13:16:27.054Z,3.60
2023-03-10T13:18:56.681Z,2.80
2023-03-10T13:21:29.480Z,4.83
2023-03-10T13:23:59.288Z,3.70
2023-03-10T13:26:28.513Z,2.90
2023-03-10T13:28:58.522Z,3.43
2023-03-10T13:31:28.502Z,4.57
2023-03-10T13:33:57.761Z,3.37
2023-03-10T13:36:33.971Z,2.33
2023-03-10T13:39:05.693Z,4.43
2023-03-10T13:41:37.360Z,3.10
2023-03-10T13:44:06.647Z,3.53
2023-03-10T13:46:35.416Z,3.57
2023-03-10T13:49:06.887Z,3.97
2023-03-10T13:51:36.717Z,2.73
2023-03-10T13:54:21.546Z,3.10
2023-03-10T13:56:51.842Z,5.97
2023-03-10T13:59:23.851Z,4.43
2023-03-10T14:01:55.361Z,4.77
2023-03-10T14:04:45.249Z,3.70
2023-03-10T14:07:18.123Z,3.80
2023-03-10T14:09:49.076Z,2.57
2023-03-10T14:12:37.258Z,2.70
2023-03-10T14:15:21.542Z,2.40
2023-03-10T14:17:50.835Z,4.47
2023-03-10T14:20:27.314Z,2.70
2023-03-10T14:22:55.006Z,3.77
2023-03-10T14:25:25.770Z,4.47
2023-03-10T14:27:56.901Z,3.67
2023-03-10T14:30:30.280Z,2.47
2023-03-10T14:32:59.976Z,3.77
2023-03-10T14:35:30.184Z,2.67
2023-03-10T14:37:59.758Z,5.03
2023-03-10T14:40:28.982Z,3.93
2023-03-10T14:43:00.327Z,3.80
2023-03-10T14:45:31.184Z,4.33
2023-03-10T14:48:01.441Z,3.77
2023-03-10T14:50:30.406Z,3.37
2023-03-10T14:52:58.147Z,4.63
2023-03-10T14:55:26.014Z,3.77
2023-03-10T14:57:59.595Z,6.80
2023-03-10T15:00:30.933Z,3.63
2023-03-10T15:02:58.876Z,4.00
2023-03-10T15:05:45.077Z,5.67
2023-03-10T15:08:15.346Z,5.70
2023-03-10T15:10:46.728Z,6.43
2023-03-10T15:13:18.227Z,6.67
2023-03-10T15:15:47.745Z,4.03
2023-03-10T15:18:17.975Z,4.30
2023-03-10T15:20:45.994Z,10.57
2023-03-10T15:23:17.566Z,5.43
2023-03-10T15:25:46.916Z,8.07
2023-03-10T15:28:16.164Z,4.07
2023-03-10T15:30:43.822Z,5.77
2023-03-10T15:33:11.646Z,5.40
2023-03-10T15:35:40.524Z,6.23
2023-03-10T15:38:08.868Z,7.80
2023-03-10T15:40:38.705Z,7.77
2023-03-10T15:43:06.462Z,12.10
2023-03-10T15:45:40.750Z,8.13
2023-03-10T15:48:08.730Z,5.80
2023-03-10T15:50:36.699Z,6.17
2023-03-10T15:53:04.699Z,7.00
2023-03-10T15:55:32.499Z,9.67
2023-03-10T15:58:02.246Z,7.33
2023-03-10T16:00:30.044Z,9.67
2023-03-10T16:02:59.039Z,8.37
2023-03-10T16:05:28.997Z,8.20
2023-03-10T16:07:59.271Z,7.20
2023-03-10T16:10:26.950Z,8.97
2023-03-10T16:12:54.639Z,9.50
2023-03-10T16:15:22.272Z,7.80
2023-03-10T16:17:49.889Z,8.83
2023-03-10T16:20:19.446Z,7.10
2023-03-10T16:22:47.279Z,11.73
2023-03-10T16:25:16.899Z,6.83
2023-03-10T16:27:46.559Z,7.87
2023-03-10T16:30:16.804Z,9.03
2023-03-10T16:32:45.953Z,11.60
2023-03-10T16:35:14.033Z,9.83
2023-03-10T16:37:43.451Z,8.40
2023-03-10T16:40:12.355Z,9.13
2023-03-10T16:42:43.340Z,9.23
2023-03-10T16:45:12.054Z,8.70
2023-03-10T16:47:41.022Z,7.70
2023-03-10T16:50:12.633Z,7.87
2023-03-10T16:52:42.150Z,12.23
2023-03-10T16:55:16.916Z,9.87
2023-03-10T16:57:48.526Z,11.73
2023-03-10T17:00:20.982Z,11.07
2023-03-10T17:02:48.889Z,13.60
2023-03-10T17:05:17.223Z,13.40
2023-03-10T17:07:55.104Z,9.87
2023-03-10T17:10:26.653Z,11.33
2023-03-10T17:12:54.389Z,13.10
2023-03-10T17:15:22.045Z,10.73
2023-03-10T17:17:49.664Z,14.60
2023-03-10T17:20:19.347Z,11.60
2023-03-10T17:22:48.335Z,14.40
2023-03-10T17:25:16.002Z,15.30
2023-03-10T17:27:45.185Z,15.77
2023-03-10T17:30:15.600Z,14.80
2023-03-10T17:32:43.579Z,16.97
2023-03-10T17:35:11.355Z,12.37
2023-03-10T17:37:39.039Z,12.30
2023-03-10T17:40:09.373Z,15.60
2023-03-10T17:42:37.210Z,12.60
2023-03-10T17:45:07.671Z,13.10
2023-03-10T17:47:35.510Z,14.57
2023-03-10T17:50:03.201Z,14.33
2023-03-10T17:52:31.032Z,12.13
2023-03-10T17:54:58.666Z,16.30
2023-03-10T17:57:26.342Z,14.70
2023-03-10T17:59:53.997Z,17.00
2023-03-10T18:02:23.079Z,17.10
2023-03-10T18:04:50.729Z,13.60
2023-03-10T18:07:18.326Z,12.80
2023-03-10T18:09:45.989Z,12.00
2023-03-10T18:12:13.620Z,11.77
2023-03-10T18:14:41.308Z,15.30
2023-03-10T18:17:09.181Z,12.77
2023-03-10T18:19:38.621Z,10.67
2023-03-10T18:22:08.032Z,10.77
2023-03-10T18:24:35.810Z,12.53
2023-03-10T18:27:04.326Z,12.83
2023-03-10T18:29:31.932Z,12.67
2023-03-10T18:31:59.655Z,11.87
2023-03-10T18:34:27.941Z,16.47
2023-03-10T18:36:57.545Z,13.17
2023-03-10T18:39:25.782Z,15.90
2023-03-10T18:41:54.709Z,15.70
2023-03-10T18:44:23.096Z,14.80
2023-03-10T18:46:50.990Z,13.63
2023-03-10T18:49:18.711Z,14.80
2023-03-10T18:51:46.460Z,14.47
2023-03-10T18:54:15.352Z,15.33
2023-03-10T18:56:43.073Z,15.03
2023-03-10T18:59:11.195Z,14.53
2023-03-10T19:01:39.221Z,12.17
2023-03-10T19:04:06.979Z,13.37
2023-03-10T19:06:35.388Z,12.37
2023-03-10T19:09:03.993Z,12.77
2023-03-10T19:11:37.898Z,13.13
2023-03-10T19:14:07.452Z,11.20
2023-03-10T19:16:36.659Z,13.87
2023-03-10T19:19:04.428Z,13.87
2023-03-10T19:21:32.227Z,10.77
2023-03-10T19:23:59.862Z,12.13
2023-03-10T19:26:27.626Z,12.40
2023-03-10T19:28:56.636Z,9.30
2023-03-10T19:31:25.563Z,10.93
2023-03-10T19:33:53.995Z,9.10
2023-03-10T19:36:21.744Z,10.20
2023-03-10T19:38:49.962Z,9.47
2023-03-10T19:41:21.891Z,9.10
2023-03-10T19:43:50.626Z,6.60
2023-03-10T19:46:20.451Z,7.27
2023-03-10T19:48:48.649Z,9.13
2023-03-10T19:51:21.935Z,8.93
2023-03-10T19:53:51.069Z,8.47
2023-03-10T19:56:19.541Z,6.77
2023-03-10T19:58:48.482Z,7.43
2023-03-10T20:01:18.255Z,6.80
2023-03-10T20:03:47.591Z,5.53
2023-03-10T20:06:15.373Z,5.53
2023-03-10T20:08:43.536Z,6.70
2023-03-10T20:11:13.493Z,6.77
2023-03-10T20:13:43.206Z,6.90
2023-03-10T20:16:13.988Z,6.13
2023-03-10T20:18:42.208Z,6.07
2023-03-10T20:21:11.494Z,6.17
2023-03-10T20:23:39.447Z,6.97
2023-03-10T20:26:08.828Z,6.47
2023-03-10T20:28:39.285Z,9.30
2023-03-10T20:31:06.941Z,6.27
2023-03-10T20:33:35.486Z,9.10
2023-03-10T20:36:03.188Z,9.17
2023-03-10T20:38:32.203Z,8.23
2023-03-10T20:40:59.816Z,7.53
2023-03-10T20:43:28.118Z,8.67
2023-03-10T20:45:55.817Z,8.60
2023-03-10T20:48:23.652Z,12.07
2023-03-10T20:50:55.042Z,8.63
2023-03-10T20:53:23.986Z,11.43
2023-03-10T20:55:53.350Z,10.97
2023-03-10T20:58:21.852Z,10.37
2023-03-10T21:00:49.783Z,10.17
2023-03-10T21:03:22.790Z,10.63
2023-03-10T21:05:50.938Z,8.43
2023-03-10T21:08:19.413Z,9.67
2023-03-10T21:10:49.242Z,9.00
2023-03-10T21:13:18.628Z,9.43
2023-03-10T21:15:46.292Z,11.63
2023-03-10T21:18:13.936Z,7.30
2023-03-10T21:20:45.419Z,8.10
2023-03-10T21:23:13.301Z,8.77
2023-03-10T21:25:41.400Z,9.07
2023-03-10T21:28:09.509Z,8.80
2023-03-10T21:30:38.751Z,8.83
2023-03-10T21:33:06.479Z,8.43
2023-03-10T21:35:37.075Z,11.53
2023-03-10T21:38:05.435Z,9.27
2023-03-10T21:40:33.279Z,7.57
2023-03-10T21:43:02.752Z,7.80
2023-03-10T21:45:33.348Z,10.17
2023-03-10T21:48:03.958Z,7.70
2023-03-10T21:50:31.830Z,9.30
2023-03-10T21:52:59.754Z,8.63
2023-03-10T21:55:29.335Z,9.40
2023-03-10T21:57:56.962Z,10.83
2023-03-10T22:00:24.801Z,9.33
2023-03-10T22:02:53.779Z,10.87
2023-03-10T22:05:23.120Z,11.17
2023-03-10T22:07:51.623Z,12.67
2023-03-10T22:10:19.572Z,13.33
2023-03-10T22:12:51.255Z,11.60
2023-03-10T22:15:21.957Z,12.33
2023-03-10T22:17:50.263Z,10.37
2023-03-10T22:20:20.593Z,11.97
2023-03-10T22:22:49.851Z,12.47
2023-03-10T22:25:18.445Z,11.90
2023-03-10T22:27:49.963Z,12.47
2023-03-10T22:30:18.568Z,9.87
2023-03-10T22:32:46.425Z,12.23
2023-03-10T22:35:14.261Z,12.33
2023-03-10T22:37:42.882Z,13.20
2023-03-10T22:40:16.113Z,11.93
2023-03-10T22:42:44.772Z,11.00
2023-03-10T22:45:18.320Z,13.03
2023-03-10T22:47:46.233Z,10.33
2023-03-10T22:50:16.019Z,9.93
2023-03-10T22:52:43.913Z,10.97
2023-03-10T22:55:16.224Z,12.63
2023-03-10T22:57:44.186Z,10.47
2023-03-10T23:00:20.242Z,10.13
2023-03-10T23:02:49.369Z,10.50
2023-03-10T23:05:18.115Z,10.77
2023-03-10T23:07:48.554Z,12.97
2023-03-10T23:10:20.287Z,12.40
2023-03-10T23:12:49.141Z,10.97
2023-03-10T23:15:24.806Z,8.63
2023-03-10T23:17:53.800Z,11.97
2023-03-10T23:20:23.917Z,14.73
2023-03-10T23:22:51.633Z,13.43
2023-03-10T23:25:26.573Z,12.90
2023-03-10T23:27:56.104Z,13.60
2023-03-10T23:30:26.065Z,16.53
2023-03-10T23:32:55.469Z,15.37
2023-03-10T23:35:26.621Z,17.37
2023-03-10T23:37:56.423Z,15.83
2023-03-10T23:40:28.784Z,16.37
2023-03-10T23:42:58.608Z,14.50
2023-03-10T23:45:31.181Z,16.47
2023-03-10T23:48:01.371Z,16.13
2023-03-10T23:50:33.787Z,14.93
2023-03-10T23:53:02.336Z,14.03
2023-03-10T23:55:33.997Z,14.83
2023-03-10T23:58:02.161Z,19.03
